Time;durP1;ratioP1;P1;durP2;ratioP2;P2;SDS_P1;SDS_P2;PMS_P1;PMS_P2;Temp;Humidity;BMP_temperature;BMP_pressure;BME280_temperature;BME280_humidity;BME280_pressure;Samples;Min_cycle;Max_cycle;Signal;HPM_P1;HPM_P2
2022/06/18 00:01:48;;;;;;;3.60;3.20;;;21.10;1.00;;;;;;5066699;28;20486;-77
2022/06/18 00:04:17;;;;;;;4.23;3.40;;;21.10;1.00;;;;;;5063942;28;20464;-76
2022/06/18 00:06:50;;;;;;;5.13;3.77;;;21.00;1.00;;;;;;5064656;28;20456;-76
2022/06/18 00:09:20;;;;;;;4.30;3.90;;;20.90;1.00;;;;;;5062867;28;20882;-76
2022/06/18 00:14:34;;;;;;;3.80;3.20;;;20.70;1.00;;;;;;5067891;28;20485;-77
2022/06/18 00:17:02;;;;;;;15.00;13.93;;;20.70;1.00;;;;;;5060415;28;20460;-78
2022/06/18 00:19:28;;;;;;;4.63;4.23;;;20.60;1.00;;;;;;5068991;28;20460;-76
2022/06/18 00:21:55;;;;;;;4.10;3.70;;;20.60;1.00;;;;;;5062715;28;20475;-77
2022/06/18 00:24:23;;;;;;;4.37;3.97;;;20.60;1.00;;;;;;5063502;28;20511;-77
2022/06/18 00:26:52;;;;;;;4.47;3.60;;;20.50;1.00;;;;;;5064103;28;20451;-78
2022/06/18 00:29:19;;;;;;;3.80;3.50;;;20.50;1.00;;;;;;5065703;28;20901;-77
2022/06/18 00:31:48;;;;;;;4.03;3.63;;;20.50;1.00;;;;;;5061833;28;20478;-78
2022/06/18 00:34:19;;;;;;;4.00;3.60;;;20.50;1.00;;;;;;5062466;28;20490;-76
2022/06/18 00:36:46;;;;;;;4.70;3.57;;;20.50;1.00;;;;;;5060757;28;20435;-78
2022/06/18 00:39:17;;;;;;;4.27;3.93;;;20.40;1.00;;;;;;5060346;28;20467;-79
2022/06/18 00:41:47;;;;;;;5.40;5.00;;;20.30;1.00;;;;;;5061408;28;20463;-79
2022/06/18 00:44:23;;;;;;;4.90;4.20;;;20.30;1.00;;;;;;5059895;28;20470;-78
2022/06/18 00:47:06;;;;;;;6.20;5.60;;;20.30;1.00;;;;;;5067547;28;20469;-80
2022/06/18 00:49:38;;;;;;;4.00;3.60;;;20.30;1.00;;;;;;5062716;28;20459;-77
2022/06/18 00:52:15;;;;;;;4.50;4.10;;;20.20;1.00;;;;;;5061875;28;20475;-78
2022/06/18 00:54:47;;;;;;;4.37;3.97;;;20.20;1.00;;;;;;5060263;28;20458;-78
2022/06/18 00:57:19;;;;;;;4.67;4.27;;;20.10;1.00;;;;;;5059271;28;20554;-79
2022/06/18 00:59:56;;;;;;;4.27;3.97;;;20.10;1.00;;;;;;5057365;28;20489;-79
2022/06/18 01:02:28;;;;;;;5.60;4.43;;;20.10;1.00;;;;;;5055295;28;20468;-77
2022/06/18 01:04:55;;;;;;;4.13;3.80;;;20.10;1.00;;;;;;5059115;28;20944;-79
2022/06/18 01:07:29;;;;;;;5.70;4.87;;;20.10;1.00;;;;;;5064223;28;20486;-79
2022/06/18 01:09:58;;;;;;;5.10;4.60;;;20.00;1.00;;;;;;5063452;28;20472;-79
2022/06/18 01:12:25;;;;;;;4.13;3.83;;;20.00;1.00;;;;;;5063877;28;20455;-77
2022/06/18 01:15:00;;;;;;;4.53;4.23;;;20.00;1.00;;;;;;5062489;28;20547;-79
2022/06/18 01:17:30;;;;;;;4.30;4.00;;;20.00;1.00;;;;;;5065660;28;20542;-79
2022/06/18 01:19:59;;;;;;;4.70;3.93;;;20.00;1.00;;;;;;5064540;28;20479;-77
2022/06/18 01:22:37;;;;;;;4.30;3.90;;;20.00;1.00;;;;;;5063736;28;20939;-76
2022/06/18 01:25:07;;;;;;;5.47;4.20;;;19.90;1.00;;;;;;5061551;28;20490;-77
2022/06/18 01:27:34;;;;;;;5.97;4.33;;;19.80;1.00;;;;;;5065282;28;20463;-78
2022/06/18 01:30:04;;;;;;;6.13;4.03;;;19.80;1.00;;;;;;5060433;28;20531;-78
2022/06/18 01:32:33;;;;;;;4.37;4.00;;;19.80;1.00;;;;;;5059721;28;20495;-77
2022/06/18 01:35:01;;;;;;;5.30;4.80;;;19.70;1.00;;;;;;5058144;28;20546;-77
2022/06/18 01:37:29;;;;;;;5.13;4.70;;;19.80;1.00;;;;;;5066683;28;20459;-78
2022/06/18 01:39:56;;;;;;;5.00;4.60;;;19.80;1.00;;;;;;5057566;28;20470;-77
2022/06/18 01:42:28;;;;;;;4.77;4.30;;;19.70;1.00;;;;;;5058183;28;20618;-78
2022/06/18 01:44:58;;;;;;;5.33;4.60;;;19.70;1.00;;;;;;5058465;28;21219;-77
2022/06/18 01:47:32;;;;;;;5.93;5.47;;;19.70;1.00;;;;;;5060800;28;20455;-78
2022/06/18 01:50:07;;;;;;;5.00;4.60;;;19.60;1.00;;;;;;5062704;28;20472;-78
2022/06/18 01:52:42;;;;;;;4.93;4.50;;;19.60;1.00;;;;;;5064129;28;22010;-77
2022/06/18 01:55:14;;;;;;;4.73;4.33;;;19.60;1.00;;;;;;5059784;28;20466;-80
2022/06/18 01:57:46;;;;;;;5.20;4.70;;;19.60;1.00;;;;;;5061044;28;20552;-77
2022/06/18 02:00:17;;;;;;;3.93;3.70;;;19.60;1.00;;;;;;5058283;28;20967;-78
2022/06/18 02:02:45;;;;;;;4.27;3.97;;;19.50;1.00;;;;;;5059466;28;20471;-78
2022/06/18 02:05:15;;;;;;;4.70;4.07;;;19.50;1.00;;;;;;5062486;28;20451;-79
2022/06/18 02:07:44;;;;;;;5.20;4.80;;;19.50;1.00;;;;;;5060034;28;20499;-77
2022/06/18 02:10:17;;;;;;;5.50;5.03;;;19.60;1.00;;;;;;5058442;28;20458;-78
2022/06/18 02:12:46;;;;;;;4.80;3.93;;;19.50;1.00;;;;;;5060656;28;20464;-77
2022/06/18 02:15:17;;;;;;;4.87;4.40;;;19.50;1.00;;;;;;5052691;28;20481;-77
2022/06/18 02:17:45;;;;;;;5.27;4.77;;;19.40;1.00;;;;;;5061624;28;20481;-77
2022/06/18 02:20:15;;;;;;;5.30;4.90;;;19.40;1.00;;;;;;5061810;28;20876;-77
2022/06/18 02:22:45;;;;;;;4.57;4.17;;;19.30;1.00;;;;;;5063527;28;20562;-77
2022/06/18 02:25:13;;;;;;;5.03;4.53;;;19.20;1.00;;;;;;5058607;28;21216;-77
2022/06/18 02:27:41;;;;;;;5.50;4.37;;;19.20;1.00;;;;;;5058306;28;20456;-79
2022/06/18 02:30:16;;;;;;;4.97;4.17;;;19.10;1.00;;;;;;5062144;28;20768;-77
2022/06/18 02:32:50;;;;;;;4.40;4.10;;;19.20;1.00;;;;;;5062300;28;20898;-77
2022/06/18 02:35:18;;;;;;;4.60;4.17;;;19.10;1.00;;;;;;5056813;28;20448;-77
2022/06/18 02:37:45;;;;;;;5.50;5.00;;;19.10;1.00;;;;;;5067363;28;20420;-77
2022/06/18 02:40:19;;;;;;;5.07;4.67;;;19.10;1.00;;;;;;5059157;28;20454;-76
2022/06/18 02:42:47;;;;;;;5.60;4.87;;;19.10;1.00;;;;;;5060742;28;20480;-77
2022/06/18 02:45:17;;;;;;;5.00;4.60;;;19.10;1.00;;;;;;5060860;28;20451;-76
2022/06/18 02:47:44;;;;;;;5.37;4.87;;;19.00;1.00;;;;;;5063239;28;20919;-77
2022/06/18 02:50:15;;;;;;;5.20;4.70;;;19.00;1.00;;;;;;5049264;28;20517;-76
2022/06/18 02:52:45;;;;;;;4.67;4.27;;;19.10;1.00;;;;;;5064327;28;20511;-77
2022/06/18 02:55:21;;;;;;;4.97;4.57;;;19.00;1.00;;;;;;5062959;28;20505;-76
2022/06/18 02:57:51;;;;;;;4.27;3.93;;;19.00;1.00;;;;;;5061194;28;20827;-80
2022/06/18 03:00:19;;;;;;;5.07;4.57;;;19.00;1.00;;;;;;5060764;28;20456;-77
2022/06/18 03:02:46;;;;;;;5.23;4.60;;;19.00;1.00;;;;;;5062715;28;20475;-76
2022/06/18 03:05:20;;;;;;;4.73;4.33;;;19.00;1.00;;;;;;5063864;28;20453;-76
2022/06/18 03:07:47;;;;;;;4.80;4.40;;;18.90;1.00;;;;;;5066982;28;20475;-77
2022/06/18 03:12:59;;;;;;;5.23;4.83;;;18.80;1.00;;;;;;5060226;28;20476;-78
2022/06/18 03:15:30;;;;;;;5.10;4.60;;;18.80;1.00;;;;;;5063012;28;20968;-77
2022/06/18 03:17:59;;;;;;;4.97;4.57;;;18.80;1.00;;;;;;5064857;28;20466;-77
2022/06/18 03:20:36;;;;;;;4.23;3.90;;;18.80;1.00;;;;;;5062155;28;20470;-77
2022/06/18 03:23:03;;;;;;;4.70;4.40;;;18.80;1.00;;;;;;5067727;28;20661;-77
2022/06/18 03:25:29;;;;;;;4.30;3.93;;;18.80;1.00;;;;;;5063065;28;20455;-77
2022/06/18 03:27:56;;;;;;;5.07;4.67;;;18.80;1.00;;;;;;5066365;28;20898;-76
2022/06/18 03:30:23;;;;;;;6.30;5.23;;;18.80;1.00;;;;;;5057857;28;20455;-77
2022/06/18 03:32:52;;;;;;;5.33;4.33;;;18.90;1.00;;;;;;5063999;28;20471;-77
2022/06/18 03:35:18;;;;;;;4.73;4.43;;;18.90;1.00;;;;;;5062243;28;20909;-77
2022/06/18 03:37:45;;;;;;;4.37;4.07;;;18.90;1.00;;;;;;5066973;28;20898;-76
2022/06/18 03:40:13;;;;;;;4.40;4.00;;;18.90;1.00;;;;;;5065775;28;20529;-76
2022/06/18 03:42:41;;;;;;;4.50;4.10;;;18.90;1.00;;;;;;5064771;28;20575;-76
2022/06/18 03:45:10;;;;;;;4.73;4.33;;;18.80;1.00;;;;;;5062509;28;20673;-77
2022/06/18 03:47:37;;;;;;;4.83;4.43;;;18.80;1.00;;;;;;5062973;28;20488;-76
2022/06/18 03:50:07;;;;;;;5.10;4.70;;;18.80;1.00;;;;;;5061993;28;20455;-77
2022/06/18 03:52:34;;;;;;;5.00;4.50;;;18.80;1.00;;;;;;5062358;28;20584;-77
2022/06/18 03:55:01;;;;;;;4.80;4.07;;;18.80;1.00;;;;;;5048862;28;20456;-77
2022/06/18 03:57:30;;;;;;;4.10;3.80;;;18.80;1.00;;;;;;5055208;28;20575;-77
2022/06/18 03:59:57;;;;;;;4.50;4.20;;;18.80;1.00;;;;;;5064174;28;20467;-77
2022/06/18 04:02:24;;;;;;;5.20;4.80;;;18.90;1.00;;;;;;5055543;28;20447;-78
2022/06/18 04:04:51;;;;;;;4.70;4.30;;;19.00;1.00;;;;;;5057377;28;20531;-77
2022/06/18 04:07:23;;;;;;;5.73;4.73;;;19.00;1.00;;;;;;5061479;28;20455;-77
2022/06/18 04:09:52;;;;;;;4.57;4.27;;;18.90;1.00;;;;;;5062461;28;20544;-76
2022/06/18 04:12:19;;;;;;;4.70;4.30;;;18.90;1.00;;;;;;5060112;28;21178;-79
2022/06/18 04:14:45;;;;;;;4.73;4.20;;;18.90;1.00;;;;;;5061851;28;20451;-79
2022/06/18 04:17:14;;;;;;;5.40;4.43;;;19.00;1.00;;;;;;5060316;28;20447;-79
2022/06/18 04:19:40;;;;;;;5.07;4.50;;;19.00;1.00;;;;;;5064935;28;20426;-79
2022/06/18 04:22:07;;;;;;;5.60;3.67;;;19.00;1.00;;;;;;5062812;28;20542;-79
2022/06/18 04:24:36;;;;;;;3.87;3.57;;;19.00;1.00;;;;;;5060806;28;20546;-79
2022/06/18 04:27:04;;;;;;;4.77;3.87;;;19.10;1.00;;;;;;5059972;28;20467;-79
2022/06/18 04:29:31;;;;;;;4.13;3.60;;;19.10;1.00;;;;;;5059494;28;21264;-79
2022/06/18 04:31:59;;;;;;;4.47;4.10;;;19.10;1.00;;;;;;5066385;28;20486;-79
2022/06/18 04:34:27;;;;;;;4.90;4.40;;;19.20;1.00;;;;;;5064854;28;20456;-79
2022/06/18 04:36:55;;;;;;;4.83;4.00;;;19.20;1.00;;;;;;5065030;28;20495;-79
2022/06/18 04:39:24;;;;;;;3.90;3.40;;;19.20;1.00;;;;;;5065638;28;20459;-79
2022/06/18 04:41:52;;;;;;;3.47;3.17;;;19.30;1.00;;;;;;5062928;28;20486;-78
2022/06/18 04:44:19;;;;;;;4.97;4.37;;;19.20;1.00;;;;;;5062608;28;20547;-78
2022/06/18 04:46:46;;;;;;;4.13;3.73;;;19.30;1.00;;;;;;5067409;28;20465;-79
2022/06/18 04:49:13;;;;;;;4.40;4.00;;;19.30;1.00;;;;;;5064181;28;20424;-79
2022/06/18 04:51:40;;;;;;;3.37;3.17;;;19.40;1.00;;;;;;5065523;28;20467;-78
2022/06/18 04:54:07;;;;;;;3.33;3.03;;;19.40;1.00;;;;;;5061748;28;20447;-79
2022/06/18 04:56:35;;;;;;;3.77;3.20;;;19.50;1.00;;;;;;5060539;28;20556;-78
2022/06/18 04:59:03;;;;;;;3.40;3.10;;;19.50;1.00;;;;;;5060218;28;20472;-78
2022/06/18 05:01:34;;;;;;;3.53;3.23;;;19.60;1.00;;;;;;5060348;28;20475;-78
2022/06/18 05:04:01;;;;;;;3.10;2.87;;;19.70;1.00;;;;;;5063765;28;20448;-79
2022/06/18 05:06:28;;;;;;;3.43;3.13;;;19.80;1.00;;;;;;5060897;28;20488;-80
2022/06/18 05:08:55;;;;;;;3.47;3.17;;;19.90;1.00;;;;;;5062717;28;20548;-80
2022/06/18 05:11:22;;;;;;;3.00;2.60;;;20.00;1.00;;;;;;5063612;28;20476;-80
2022/06/18 05:13:49;;;;;;;3.33;3.10;;;20.10;1.00;;;;;;5065103;28;20419;-79
2022/06/18 05:16:18;;;;;;;3.20;2.90;;;20.20;1.00;;;;;;5062876;28;20479;-80
2022/06/18 05:18:46;;;;;;;3.00;2.67;;;20.30;1.00;;;;;;5061580;28;20459;-80
2022/06/18 05:21:14;;;;;;;3.50;2.87;;;20.40;1.00;;;;;;5065499;28;20467;-77
2022/06/18 05:23:41;;;;;;;3.40;3.10;;;20.50;1.00;;;;;;5061410;28;20561;-79
2022/06/18 05:26:14;;;;;;;3.00;2.80;;;20.60;1.00;;;;;;5055991;28;20451;-78
2022/06/18 05:28:41;;;;;;;2.60;2.33;;;20.70;1.00;;;;;;5067145;28;20999;-80
2022/06/18 05:31:08;;;;;;;2.90;2.70;;;20.90;1.00;;;;;;5060618;28;20596;-79
2022/06/18 05:33:37;;;;;;;2.97;2.43;;;21.00;1.00;;;;;;5062266;28;20459;-79
2022/06/18 05:36:05;;;;;;;4.67;2.80;;;21.10;1.00;;;;;;5060394;28;20461;-78
2022/06/18 05:38:32;;;;;;;2.80;2.20;;;21.20;1.00;;;;;;5064948;28;20491;-78
2022/06/18 05:40:59;;;;;;;2.97;2.70;;;21.30;1.00;;;;;;5065982;28;20459;-79
2022/06/18 05:43:26;;;;;;;2.73;2.27;;;21.50;1.00;;;;;;5061306;28;20892;-78
2022/06/18 05:45:53;;;;;;;6.20;2.60;;;21.60;1.00;;;;;;5063768;28;20471;-81
2022/06/18 05:48:20;;;;;;;2.77;2.57;;;21.80;1.00;;;;;;5065086;28;20471;-80
2022/06/18 05:50:48;;;;;;;2.67;2.47;;;21.90;1.00;;;;;;5065507;28;20471;-79
2022/06/18 05:53:15;;;;;;;2.30;2.10;;;22.00;1.00;;;;;;5064132;28;20928;-79
2022/06/18 05:55:42;;;;;;;2.70;2.20;;;22.10;1.00;;;;;;5062057;28;21434;-79
2022/06/18 05:58:11;;;;;;;4.80;2.33;;;22.20;1.00;;;;;;5060443;28;20460;-79
2022/06/18 06:00:37;;;;;;;2.37;2.17;;;22.30;1.00;;;;;;5061390;28;20475;-78
2022/06/18 06:03:04;;;;;;;4.30;2.30;;;22.40;1.00;;;;;;5056327;28;20550;-79
2022/06/18 06:05:32;;;;;;;4.07;2.57;;;22.50;1.00;;;;;;5058448;28;20578;-80
2022/06/18 06:08:06;;;;;;;6.40;3.30;;;22.70;1.00;;;;;;5060602;28;20431;-78
2022/06/18 06:13:20;;;;;;;3.00;2.60;;;22.90;1.00;;;;;;5064105;28;20574;-81
2022/06/18 06:15:48;;;;;;;2.70;2.50;;;23.00;1.00;;;;;;5060670;28;20523;-79
2022/06/18 06:18:20;;;;;;;2.90;2.70;;;23.20;1.00;;;;;;5057847;28;20484;-81
2022/06/18 06:20:51;;;;;;;3.40;2.47;;;23.30;1.00;;;;;;5062656;28;20471;-78
2022/06/18 06:23:22;;;;;;;2.50;2.30;;;23.40;1.00;;;;;;5065093;28;20982;-80
2022/06/18 06:25:50;;;;;;;2.47;2.27;;;23.60;1.00;;;;;;5060763;28;20478;-78
2022/06/18 06:28:20;;;;;;;2.80;2.60;;;23.70;1.00;;;;;;5060632;28;20452;-80
2022/06/18 06:30:48;;;;;;;2.70;2.30;;;23.80;1.00;;;;;;5061113;28;20475;-79
2022/06/18 06:33:15;;;;;;;2.97;2.67;;;23.90;1.00;;;;;;5062380;28;20962;-80
2022/06/18 06:35:43;;;;;;;3.40;2.73;;;24.00;1.00;;;;;;5060936;28;20455;-79
2022/06/18 06:38:11;;;;;;;2.43;2.23;;;24.20;1.00;;;;;;5063386;28;20459;-81
2022/06/18 06:40:42;;;;;;;2.60;2.00;;;24.30;1.00;;;;;;5062383;28;20526;-79
2022/06/18 06:43:12;;;;;;;2.97;2.73;;;24.30;1.00;;;;;;5067743;28;20450;-80
2022/06/18 06:45:39;;;;;;;3.03;2.50;;;24.50;1.00;;;;;;5063353;28;20459;-79
2022/06/18 06:48:06;;;;;;;3.40;2.50;;;24.50;1.00;;;;;;5061577;28;20468;-79
2022/06/18 06:50:34;;;;;;;2.50;2.30;;;24.70;1.00;;;;;;5067094;28;20473;-79
2022/06/18 06:53:01;;;;;;;2.60;2.40;;;24.70;1.00;;;;;;5061976;28;20459;-79
2022/06/18 06:58:18;;;;;;;5.13;2.90;;;24.90;1.00;;;;;;5061262;28;20471;-80
2022/06/18 07:00:47;;;;;;;3.90;2.47;;;25.00;1.00;;;;;;5058016;28;20479;-81
2022/06/18 07:03:18;;;;;;;2.97;2.67;;;25.10;1.00;;;;;;5064077;28;20947;-79
2022/06/18 07:05:48;;;;;;;2.70;2.50;;;25.20;1.00;;;;;;5061097;28;20586;-79
2022/06/18 07:08:15;;;;;;;6.63;2.50;;;25.30;1.00;;;;;;5063759;28;20471;-79
2022/06/18 07:10:44;;;;;;;2.53;2.30;;;25.40;1.00;;;;;;5069089;28;20932;-79
2022/06/18 07:13:11;;;;;;;3.20;2.80;;;25.50;1.00;;;;;;5064693;28;20513;-78
2022/06/18 07:15:40;;;;;;;2.70;2.50;;;25.60;1.00;;;;;;5060190;28;20825;-79
2022/06/18 07:18:13;;;;;;;4.90;4.40;;;25.70;1.00;;;;;;5064067;28;20448;-78
2022/06/18 07:20:43;;;;;;;4.40;3.20;;;25.80;1.00;;;;;;5064440;28;20494;-80
2022/06/18 07:23:12;;;;;;;3.37;3.07;;;25.90;1.00;;;;;;5064369;28;20551;-80
2022/06/18 07:25:39;;;;;;;3.63;3.13;;;25.90;1.00;;;;;;5061093;28;20480;-79
2022/06/18 07:28:06;;;;;;;3.03;2.83;;;25.90;1.00;;;;;;5058341;28;20463;-80
2022/06/18 07:30:34;;;;;;;2.97;2.77;;;26.00;1.00;;;;;;5058995;28;20537;-79
2022/06/18 07:33:03;;;;;;;3.33;3.03;;;26.00;1.00;;;;;;5057867;28;20451;-79
2022/06/18 07:35:35;;;;;;;2.90;2.70;;;26.10;1.00;;;;;;5057493;28;20470;-79
2022/06/18 07:38:03;;;;;;;3.37;3.07;;;26.10;1.00;;;;;;5059931;28;20460;-78
2022/06/18 07:40:35;;;;;;;3.73;3.53;;;26.10;1.00;;;;;;5065975;28;20432;-79
2022/06/18 07:43:04;;;;;;;3.17;2.97;;;26.20;1.00;;;;;;5061178;28;20937;-79
2022/06/18 07:45:31;;;;;;;3.20;2.90;;;26.40;1.00;;;;;;5063577;28;20459;-79
2022/06/18 07:47:59;;;;;;;3.20;2.90;;;26.60;1.00;;;;;;5064243;28;20614;-79
2022/06/18 07:50:29;;;;;;;3.23;3.03;;;26.70;1.00;;;;;;5060862;28;20567;-79
2022/06/18 07:52:56;;;;;;;3.73;3.33;;;26.80;1.00;;;;;;5063067;28;20960;-79
2022/06/18 07:55:26;;;;;;;4.63;3.37;;;26.90;1.00;;;;;;5065447;28;20554;-79
2022/06/18 07:57:53;;;;;;;3.73;3.43;;;27.00;1.00;;;;;;5060334;28;20549;-80
2022/06/18 08:00:24;;;;;;;4.80;3.63;;;27.10;1.00;;;;;;5062698;28;20572;-79
2022/06/18 08:02:54;;;;;;;5.87;3.60;;;27.30;1.00;;;;;;5062170;28;20510;-81
2022/06/18 08:05:24;;;;;;;3.37;3.10;;;27.50;1.00;;;;;;5063106;28;20924;-80
2022/06/18 08:07:53;;;;;;;3.97;3.60;;;27.60;1.00;;;;;;5060931;28;20464;-79
2022/06/18 08:10:20;;;;;;;3.63;3.13;;;27.80;1.00;;;;;;5064503;28;20472;-80
2022/06/18 08:12:48;;;;;;;5.10;3.10;;;27.90;1.00;;;;;;5060424;28;20451;-79
2022/06/18 08:15:16;;;;;;;3.13;2.93;;;28.00;1.00;;;;;;5063066;28;20451;-81
2022/06/18 08:17:43;;;;;;;3.20;3.00;;;28.00;1.00;;;;;;5060654;28;20982;-80
2022/06/18 08:20:10;;;;;;;3.13;2.93;;;28.10;1.00;;;;;;5058849;28;20572;-79
2022/06/18 08:22:40;;;;;;;4.20;3.30;;;28.20;1.00;;;;;;5061521;28;20460;-79
2022/06/18 08:25:13;;;;;;;4.20;3.70;;;28.30;1.00;;;;;;5061287;28;20914;-80
2022/06/18 08:27:44;;;;;;;2.83;2.63;;;28.50;1.00;;;;;;5064004;28;20455;-78
2022/06/18 08:30:12;;;;;;;3.73;3.43;;;28.60;1.00;;;;;;5063999;28;20494;-78
2022/06/18 08:32:40;;;;;;;3.20;2.90;;;28.70;1.00;;;;;;5063226;28;20935;-76
2022/06/18 08:35:09;;;;;;;3.77;3.47;;;28.80;1.00;;;;;;5061144;28;20467;-75
2022/06/18 08:37:36;;;;;;;3.17;2.90;;;29.00;1.00;;;;;;5059162;28;20501;-77
2022/06/18 08:40:34;;;;;;;3.27;2.90;;;29.00;1.00;;;;;;5063101;28;20482;-77
2022/06/18 08:43:08;;;;;;;3.27;3.00;;;29.00;1.00;;;;;;5055345;28;20967;-75
2022/06/18 08:45:42;;;;;;;3.57;3.00;;;29.20;1.00;;;;;;5071811;28;20467;-79
2022/06/18 08:48:22;;;;;;;3.63;3.23;;;29.30;1.00;;;;;;5061671;28;20907;-77
2022/06/18 08:51:07;;;;;;;3.40;3.10;;;29.50;1.00;;;;;;5058459;28;20475;-78
2022/06/18 08:53:45;;;;;;;3.83;3.43;;;29.60;1.00;;;;;;5064673;28;20452;-77
2022/06/18 08:56:19;;;;;;;3.03;2.83;;;29.70;1.00;;;;;;5066869;28;20458;-77
2022/06/18 08:58:56;;;;;;;4.93;2.93;;;29.90;1.00;;;;;;5063538;28;21313;-78
2022/06/18 09:01:29;;;;;;;4.33;3.17;;;30.00;1.00;;;;;;5059417;28;20469;-77
2022/06/18 09:04:09;;;;;;;3.30;3.00;;;30.00;1.00;;;;;;5061307;28;20488;-76
2022/06/18 09:06:49;;;;;;;5.23;3.10;;;30.20;1.00;;;;;;5059367;28;20900;-74
2022/06/18 09:09:27;;;;;;;3.03;2.83;;;30.50;1.00;;;;;;5068638;28;20458;-78
2022/06/18 09:12:12;;;;;;;3.10;2.87;;;30.70;1.00;;;;;;5063842;28;20461;-78
2022/06/18 09:14:46;;;;;;;3.20;2.60;;;30.90;1.00;;;;;;5062315;28;20455;-77
2022/06/18 09:17:17;;;;;;;3.13;2.83;;;30.90;1.00;;;;;;5064710;28;20898;-77
2022/06/18 09:19:48;;;;;;;3.53;2.87;;;31.00;1.00;;;;;;5062048;28;20543;-77
2022/06/18 09:22:19;;;;;;;3.10;2.77;;;31.20;1.00;;;;;;5064566;28;20531;-76
2022/06/18 09:24:49;;;;;;;5.30;3.40;;;31.30;1.00;;;;;;5064664;28;20985;-77
2022/06/18 09:27:22;;;;;;;4.40;2.97;;;31.50;1.00;;;;;;5065498;28;20451;-79
2022/06/18 09:29:55;;;;;;;3.17;2.97;;;31.60;1.00;;;;;;5057737;28;20514;-77
2022/06/18 09:32:27;;;;;;;3.50;2.40;;;31.60;1.00;;;;;;5061915;28;20478;-78
2022/06/18 09:35:00;;;;;;;2.97;2.67;;;31.70;1.00;;;;;;5063490;28;20967;-77
2022/06/18 09:37:36;;;;;;;2.77;2.50;;;31.80;1.00;;;;;;5061613;28;20465;-78
2022/06/18 09:40:06;;;;;;;2.70;2.30;;;32.10;1.00;;;;;;5062620;28;20456;-79
2022/06/18 09:42:41;;;;;;;3.80;2.40;;;32.90;1.00;;;;;;5064799;28;20544;-76
2022/06/18 09:45:12;;;;;;;3.33;2.73;;;34.40;1.00;;;;;;5064046;28;20479;-79
2022/06/18 09:47:41;;;;;;;3.80;2.30;;;36.10;1.00;;;;;;5064427;28;20879;-78
2022/06/18 09:50:17;;;;;;;3.37;2.80;;;37.40;1.00;;;;;;5061697;28;20487;-78
2022/06/18 09:52:51;;;;;;;4.23;2.70;;;38.10;1.00;;;;;;5061328;28;20562;-78
2022/06/18 09:55:22;;;;;;;6.60;4.13;;;38.40;1.00;;;;;;5062037;28;20454;-78
2022/06/18 09:57:55;;;;;;;4.80;3.17;;;38.80;1.00;;;;;;5059888;28;20550;-77
2022/06/18 10:00:27;;;;;;;4.37;3.00;;;39.30;1.00;;;;;;5057924;28;20633;-78
2022/06/18 10:03:01;;;;;;;8.23;3.30;;;39.80;1.00;;;;;;5071481;28;20472;-79
2022/06/18 10:08:19;;;;;;;3.77;3.13;;;40.60;1.00;;;;;;5067616;28;20455;-78
2022/06/18 10:10:54;;;;;;;4.83;2.80;;;40.70;1.00;;;;;;5061539;28;20451;-76
2022/06/18 10:13:28;;;;;;;4.73;3.00;;;40.20;1.00;;;;;;5062981;28;20495;-77
2022/06/18 10:16:02;;;;;;;5.67;3.37;;;40.20;1.00;;;;;;5062829;28;20963;-78
2022/06/18 10:18:46;;;;;;;3.90;3.10;;;40.70;1.00;;;;;;5061695;28;20545;-78
2022/06/18 10:21:21;;;;;;;6.23;3.07;;;40.80;1.00;;;;;;5063057;28;20541;-78
2022/06/18 10:23:58;;;;;;;11.30;4.90;;;40.90;1.00;;;;;;5059940;28;20466;-77
2022/06/18 10:26:36;;;;;;;5.10;3.07;;;41.00;1.00;;;;;;5066397;28;20451;-77
2022/06/18 10:29:17;;;;;;;5.57;3.40;;;40.60;1.00;;;;;;5064446;28;20537;-79
2022/06/18 10:31:59;;;;;;;3.80;3.30;;;40.10;1.00;;;;;;5058023;28;20462;-78
2022/06/18 10:34:49;;;;;;;5.43;3.20;;;40.30;1.00;;;;;;5062024;28;20440;-77
2022/06/18 10:37:24;;;;;;;5.00;2.97;;;40.80;1.00;;;;;;5056588;28;20465;-77
2022/06/18 10:40:02;;;;;;;3.57;3.20;;;40.80;1.00;;;;;;5071044;28;20482;-78
2022/06/18 10:42:40;;;;;;;5.17;3.37;;;41.00;1.00;;;;;;5063912;28;20994;-78
2022/06/18 10:45:16;;;;;;;10.90;5.10;;;41.10;1.00;;;;;;5064412;28;20547;-79
2022/06/18 10:47:49;;;;;;;4.60;2.87;;;41.50;1.00;;;;;;5060988;28;20455;-79
2022/06/18 10:50:19;;;;;;;3.10;2.80;;;41.20;1.00;;;;;;5062800;28;20456;-79
2022/06/18 10:52:58;;;;;;;3.00;2.80;;;41.30;1.00;;;;;;5061156;28;20911;-78
2022/06/18 10:55:26;;;;;;;3.73;2.90;;;41.80;1.00;;;;;;5063009;28;20919;-78
2022/06/18 10:57:54;;;;;;;4.27;3.30;;;42.10;1.00;;;;;;5058963;28;21038;-77
2022/06/18 11:00:25;;;;;;;3.57;2.90;;;42.40;1.00;;;;;;5059956;28;20904;-78
2022/06/18 11:02:54;;;;;;;5.07;3.23;;;42.50;1.00;;;;;;5063317;28;20460;-76
2022/06/18 11:05:28;;;;;;;6.07;3.07;;;42.90;1.00;;;;;;5062259;28;20471;-77
2022/06/18 11:07:56;;;;;;;2.73;2.53;;;42.70;1.00;;;;;;5059262;28;20455;-78
2022/06/18 11:10:39;;;;;;;4.37;3.00;;;43.20;1.00;;;;;;5058944;28;20954;-78
2022/06/18 11:13:19;;;;;;;3.33;2.77;;;43.50;1.00;;;;;;5062845;28;20927;-78
2022/06/18 11:15:47;;;;;;;3.17;2.87;;;43.90;1.00;;;;;;5064288;28;20542;-78
2022/06/18 11:18:18;;;;;;;4.73;3.37;;;44.10;1.00;;;;;;5065863;28;20458;-78
2022/06/18 11:20:59;;;;;;;2.80;2.60;;;44.30;1.00;;;;;;5067381;28;20491;-79
2022/06/18 11:23:36;;;;;;;4.30;3.80;;;44.40;1.00;;;;;;5064350;28;20464;-77
2022/06/18 11:26:14;;;;;;;5.00;3.33;;;44.40;1.00;;;;;;5065169;28;20471;-79
2022/06/18 11:28:49;;;;;;;4.67;2.60;;;44.70;1.00;;;;;;5070510;28;20456;-79
2022/06/18 11:31:26;;;;;;;3.00;2.80;;;45.10;1.00;;;;;;5069482;28;21349;-78
2022/06/18 11:34:00;;;;;;;3.73;2.70;;;45.40;1.00;;;;;;5064972;28;20456;-77
2022/06/18 11:36:47;;;;;;;7.23;4.27;;;45.80;1.00;;;;;;5068222;28;20471;-79
2022/06/18 11:39:33;;;;;;;2.93;2.73;;;46.10;1.00;;;;;;5067708;28;20571;-79
2022/06/18 11:42:08;;;;;;;6.23;2.80;;;46.50;1.00;;;;;;5070520;28;20561;-79
2022/06/18 11:44:43;;;;;;;3.27;2.97;;;46.30;1.00;;;;;;5063555;28;20469;-79
2022/06/18 11:47:17;;;;;;;4.33;2.90;;;46.50;1.00;;;;;;5067152;28;20466;-76
2022/06/18 11:49:52;;;;;;;4.30;3.70;;;45.90;1.00;;;;;;5062393;28;20505;-78
2022/06/18 11:52:24;;;;;;;4.60;3.03;;;45.70;1.00;;;;;;5064854;28;20545;-78
2022/06/18 11:55:04;;;;;;;3.27;2.97;;;45.90;1.00;;;;;;5067619;28;20916;-77
2022/06/18 11:57:36;;;;;;;5.57;3.30;;;46.20;1.00;;;;;;5065031;28;20608;-78
2022/06/18 12:00:08;;;;;;;4.03;2.83;;;46.30;1.00;;;;;;5060918;28;20464;-75
2022/06/18 12:02:48;;;;;;;4.60;3.40;;;47.00;1.00;;;;;;5064466;28;20463;-76
2022/06/18 12:05:22;;;;;;;6.90;3.30;;;46.60;1.00;;;;;;5064433;28;20854;-76
2022/06/18 12:07:54;;;;;;;4.27;3.07;;;46.20;1.00;;;;;;5057809;28;20472;-77
2022/06/18 12:10:30;;;;;;;5.20;3.10;;;46.00;1.00;;;;;;5057937;28;20886;-77
2022/06/18 12:13:06;;;;;;;6.10;3.10;;;46.00;1.00;;;;;;5057481;28;20462;-81
2022/06/18 12:15:45;;;;;;;4.93;3.77;;;46.30;1.00;;;;;;5061660;28;20557;-81
2022/06/18 12:18:21;;;;;;;5.30;3.60;;;46.80;1.00;;;;;;5058154;28;20557;-81
2022/06/18 12:21:12;;;;;;;7.43;3.43;;;47.10;1.00;;;;;;5064950;28;20483;-80
2022/06/18 12:23:48;;;;;;;5.37;3.53;;;47.00;1.00;;;;;;5064725;28;20971;-81
2022/06/18 12:26:20;;;;;;;4.90;3.37;;;47.20;1.00;;;;;;5036107;28;20467;-82
2022/06/18 12:29:38;;;;;;;8.00;3.50;;;47.80;1.00;;;;;;5062342;28;20471;-83
2022/06/18 12:32:15;;;;;;;9.90;4.27;;;48.40;1.00;;;;;;5066970;28;20690;-81
2022/06/18 12:34:53;;;;;;;10.50;4.00;;;47.90;1.00;;;;;;5063297;28;21065;-81
2022/06/18 12:37:27;;;;;;;5.50;2.67;;;47.40;1.00;;;;;;5068505;28;20447;-80
2022/06/18 12:40:01;;;;;;;4.30;3.50;;;47.00;1.00;;;;;;5068162;28;20471;-80
2022/06/18 12:42:38;;;;;;;6.63;3.60;;;46.80;1.00;;;;;;5062444;28;20959;-82
2022/06/18 12:45:12;;;;;;;7.83;4.20;;;46.80;1.00;;;;;;5064267;28;20524;-81
2022/06/18 12:47:46;;;;;;;6.87;3.67;;;47.00;1.00;;;;;;5068706;28;20451;-81
2022/06/18 12:50:30;;;;;;;5.50;3.37;;;47.10;1.00;;;;;;5063214;28;20466;-81
2022/06/18 12:53:31;;;;;;;6.80;3.87;;;47.10;1.00;;;;;;5065566;28;20857;-80
2022/06/18 12:56:12;;;;;;;7.83;3.53;;;47.10;1.00;;;;;;5056523;28;20849;-82
2022/06/18 12:58:46;;;;;;;6.80;3.53;;;47.50;1.00;;;;;;5084889;28;20876;-81
2022/06/18 13:01:17;;;;;;;10.47;5.30;;;47.70;1.00;;;;;;5064724;28;20462;-79
2022/06/18 13:04:07;;;;;;;5.93;3.60;;;47.90;1.00;;;;;;5063418;28;20456;-80
2022/06/18 13:06:43;;;;;;;6.83;3.97;;;47.70;1.00;;;;;;5062507;28;20779;-83
2022/06/18 13:09:20;;;;;;;8.03;3.83;;;47.60;1.00;;;;;;5063814;28;20605;-81
2022/06/18 13:11:59;;;;;;;5.50;3.63;;;47.80;1.00;;;;;;5059890;28;20475;-81
2022/06/18 13:14:48;;;;;;;4.47;3.40;;;47.60;1.00;;;;;;5064208;28;20827;-83
2022/06/18 13:17:21;;;;;;;5.40;4.60;;;47.40;1.00;;;;;;5064343;28;20986;-83
2022/06/18 13:19:56;;;;;;;7.00;3.83;;;47.10;1.00;;;;;;5065289;28;20570;-81
2022/06/18 13:22:27;;;;;;;5.43;3.70;;;46.60;1.00;;;;;;5066421;28;20475;-82
2022/06/18 13:30:37;;;;;;;7.33;4.33;;;46.10;1.00;;;;;;5060888;28;20542;-81
2022/06/18 13:33:12;;;;;;;8.57;3.93;;;46.30;1.00;;;;;;5080160;28;20490;-82
2022/06/18 13:35:47;;;;;;;7.57;3.73;;;46.70;1.00;;;;;;5067369;28;20947;-83
2022/06/18 13:38:35;;;;;;;6.07;3.80;;;47.00;1.00;;;;;;5068631;28;20459;-80
2022/06/18 13:41:11;;;;;;;6.60;4.00;;;47.00;1.00;;;;;;5066147;28;20404;-80